GCTS Airport Information

Runway Information
Runway 07 Length 10499 ft width 148 ft
Elevation 188 ft Threshold ft Heading 69
Runway 25 Length 10499 ft Width 148 ft
Elevation 209 ft Threshold ft Heading 249
Airport Frequencies
Type APP Name APP Frequency 120.3 MHZ
Type ATIS Name ATIS Frequency 118.675 MHZ
Type GND Name GND Frequency 121.9 MHZ
Type TWR Name TWR Frequency 119 MHZ
Airport Navaids
Type NDB Name Tenerife Sur Frequency 317 KHZ
Type VOR-DME Name Tenerife Sur Frequency 116400 KHZ
Airport Weather Information & NOTAM
ADDS - METARS form results

(2216 UTC 28 September 2022)
Data provider http://aviationweather.gov/metar/data/
 
METAR text: GCTS 282200Z 07012KT 9999 FEW025 22/18 Q1021 NOSIG
Conditions at: GCTS (TENERIFE SUR/REI, ES) observed 2200 UTC 28 September 2022
Temperature: 22.0°C (72°F)
Dewpoint: 18.0°C (64°F) [RH = 78%]
Pressure (altimeter): 30.15 inches Hg (1021.0 mb)
Winds: from the ENE (70 degrees) at 14 MPH (12 knots; 6.2 m/s)
Visibility: 6 or more miles (10+ km)
Ceiling: at least 12,000 feet AGL
Clouds: few clouds at 2500 feet AGL
Weather: no significant weather observed at this time

METAR text: GCTS 282130Z 07014KT 9999 FEW025 22/18 Q1020 NOSIG
Conditions at: GCTS (TENERIFE SUR/REI, ES) observed 2130 UTC 28 September 2022
Temperature: 22.0°C (72°F)
Dewpoint: 18.0°C (64°F) [RH = 78%]
Pressure (altimeter): 30.12 inches Hg (1020.0 mb)
Winds: from the ENE (70 degrees) at 16 MPH (14 knots; 7.2 m/s)
Visibility: 6 or more miles (10+ km)
Ceiling: at least 12,000 feet AGL
Clouds: few clouds at 2500 feet AGL
Weather: no significant weather observed at this time

Forecast for: GCTS (TENERIFE SUR/REI, ES)
Text: TAF GCTS 282000Z 2821/2921 06015KT 9999 FEW025 TX26/2914Z TN20/2906Z
Forecast period: 2100 UTC 28 September 2022 to 2100 UTC 29 September 2022
Forecast type: FROM: standard forecast or significant change
Winds: from the ENE (60 degrees) at 17 MPH (15 knots; 7.7 m/s)
Visibility: 6 or more miles (10+ km)
Ceiling: at least 12,000 feet AGL
Clouds: few clouds at 2500 feet AGL
Weather: no significant weather forecast for this period